Time;durP1;ratioP1;P1;durP2;ratioP2;P2;SDS_P1;SDS_P2;PMS_P1;PMS_P2;Temp;Humidity;BMP_temperature;BMP_pressure;BME280_temperature;BME280_humidity;BME280_pressure;Samples;Min_cycle;Max_cycle;Signal;HPM_P1;HPM_P2
2022/05/16 05:04:04;;;;;;;;;;;;;;;17.04;57.28;99798.66;1086560;54;21292;-79
2022/05/16 05:05:12;;;;;;;;;;;;;;;17.07;57.12;99804.50;1088178;54;19943;-80
2022/05/16 05:06:16;;;;;;;;;;;;;;;17.17;56.66;99793.41;1088430;54;19927;-80
2022/05/16 05:07:18;;;;;;;;;;;;;;;17.19;56.61;99796.75;1088408;54;20003;-83
2022/05/16 05:08:22;;;;;;;;;;;;;;;17.20;56.94;99790.28;1088471;54;19923;-81
2022/05/16 05:09:23;;;;;;;;;;;;;;;17.21;56.89;99797.38;1088491;54;19927;-81
2022/05/16 05:15:31;;;;;;;;;;;;;;;17.30;56.53;99798.91;1088248;54;19950;-82
2022/05/16 05:16:35;;;;;;;;;;;;;;;17.26;56.99;99804.88;1088415;54;19942;-82
2022/05/16 05:17:40;;;;;;;;;;;;;;;17.27;56.99;99802.00;1088425;54;20558;-81
2022/05/16 05:18:45;;;;;;;;;;;;;;;17.34;56.90;99795.81;1088492;54;19934;-81
2022/05/16 05:19:48;;;;;;;;;;;;;;;17.28;58.07;99795.56;1092597;47;19939;-82
2022/05/16 05:20:52;;;;;;;;;;;;;;;17.09;59.13;99805.16;1089008;47;20665;-83
2022/05/16 05:21:57;;;;;;;;;;;;;;;17.20;58.61;99793.00;1089164;47;19994;-81
2022/05/16 05:22:59;;;;;;;;;;;;;;;17.17;58.41;99796.09;1091307;47;19963;-81
2022/05/16 05:24:04;;;;;;;;;;;;;;;17.13;58.83;99800.19;1092354;47;19955;-82
2022/05/16 05:25:05;;;;;;;;;;;;;;;17.09;58.75;99799.75;1094546;47;19946;-81
2022/05/16 05:26:13;;;;;;;;;;;;;;;16.98;59.32;99808.38;1091519;47;19945;-82
2022/05/16 05:27:17;;;;;;;;;;;;;;;16.89;60.19;99810.34;1088245;54;19983;-82
2022/05/16 05:28:18;;;;;;;;;;;;;;;16.90;60.33;99805.75;1088286;54;19974;-81
2022/05/16 05:29:22;;;;;;;;;;;;;;;17.06;59.50;99802.84;1088373;54;19926;-80
2022/05/16 05:30:25;;;;;;;;;;;;;;;17.17;58.93;99790.69;1088247;54;20503;-82
2022/05/16 05:31:29;;;;;;;;;;;;;;;17.25;58.85;99787.00;1088037;54;19942;-81
2022/05/16 05:32:34;;;;;;;;;;;;;;;17.34;58.89;99790.41;1088262;54;19934;-81
2022/05/16 05:33:38;;;;;;;;;;;;;;;17.41;58.38;99791.28;1088414;54;19949;-82
2022/05/16 05:34:42;;;;;;;;;;;;;;;17.47;58.28;99790.53;1088468;54;19939;-83
2022/05/16 05:35:47;;;;;;;;;;;;;;;17.50;58.53;99781.19;1088514;46;19942;-81
2022/05/16 05:36:54;;;;;;;;;;;;;;;17.53;58.39;99778.06;1088408;54;19979;-82
2022/05/16 05:37:57;;;;;;;;;;;;;;;17.48;58.83;99789.47;1088261;54;19927;-83
2022/05/16 05:39:02;;;;;;;;;;;;;;;17.36;59.46;99767.56;1088479;54;19927;-82
2022/05/16 05:40:06;;;;;;;;;;;;;;;17.29;59.22;99780.19;1088440;54;19974;-82
2022/05/16 05:41:11;;;;;;;;;;;;;;;17.31;59.08;99784.34;1088337;54;19974;-80
2022/05/16 05:42:15;;;;;;;;;;;;;;;17.41;58.48;99791.28;1088375;54;19926;-81
2022/05/16 05:43:19;;;;;;;;;;;;;;;17.44;59.04;99790.91;1088373;54;19938;-82
2022/05/16 05:44:22;;;;;;;;;;;;;;;17.52;58.26;99798.03;1088420;54;19991;-81
2022/05/16 05:45:26;;;;;;;;;;;;;;;17.53;58.67;99794.28;1088454;54;19942;-81
2022/05/16 05:46:35;;;;;;;;;;;;;;;17.48;58.91;99789.47;1097985;31;20661;-81
2022/05/16 05:47:38;;;;;;;;;;;;;;;17.46;58.75;99805.06;1088122;54;19934;-81
2022/05/16 05:48:42;;;;;;;;;;;;;;;17.51;58.84;99810.72;1088280;54;19937;-82
2022/05/16 05:49:44;;;;;;;;;;;;;;;17.53;58.94;99813.19;1088389;54;19943;-82
2022/05/16 05:50:48;;;;;;;;;;;;;;;17.59;58.78;99809.72;1088310;54;20036;-80
2022/05/16 05:51:52;;;;;;;;;;;;;;;17.52;59.76;99801.56;1088387;54;19927;-82
2022/05/16 05:52:56;;;;;;;;;;;;;;;17.53;60.40;99800.53;1089963;31;20617;-81
2022/05/16 05:53:57;;;;;;;;;;;;;;;17.55;59.76;99797.63;1089383;39;20561;-82
2022/05/16 05:55:03;;;;;;;;;;;;;;;17.55;59.31;99809.28;1088331;54;20008;-81
2022/05/16 05:56:11;;;;;;;;;;;;;;;17.58;58.99;99808.88;1088458;54;19939;-82
2022/05/16 05:57:13;;;;;;;;;;;;;;;17.53;59.03;99822.16;1088459;54;19933;-82
2022/05/16 05:58:18;;;;;;;;;;;;;;;17.54;59.36;99813.03;1088359;54;19930;-81
2022/05/16 05:59:20;;;;;;;;;;;;;;;17.47;59.75;99814.84;1089804;39;20670;-82
2022/05/16 06:00:25;;;;;;;;;;;;;;;17.57;59.20;99819.91;1088251;54;19943;-80
2022/05/16 06:01:26;;;;;;;;;;;;;;;17.55;59.60;99814.69;1088242;54;19967;-81
2022/05/16 06:02:31;;;;;;;;;;;;;;;17.55;59.88;99809.28;1088053;54;19989;-81
2022/05/16 06:03:35;;;;;;;;;;;;;;;17.63;59.06;99813.69;1088049;54;19947;-82
2022/05/16 06:04:38;;;;;;;;;;;;;;;17.69;58.94;99817.47;1088038;54;19927;-82
2022/05/16 06:05:44;;;;;;;;;;;;;;;17.67;59.13;99825.81;1088441;54;19950;-82
2022/05/16 06:06:46;;;;;;;;;;;;;;;17.74;58.89;99817.75;1088447;54;19941;-81
2022/05/16 06:07:53;;;;;;;;;;;;;;;17.79;58.94;99817.97;1088409;54;20637;-83
2022/05/16 06:08:55;;;;;;;;;;;;;;;17.83;59.04;99824.66;1088522;54;19942;-84
2022/05/16 06:09:59;;;;;;;;;;;;;;;17.86;58.69;99813.44;1088490;54;19955;-84
2022/05/16 06:11:03;;;;;;;;;;;;;;;17.81;59.64;99815.91;1088739;54;19943;-81
2022/05/16 06:12:06;;;;;;;;;;;;;;;17.80;59.35;99819.66;1088735;54;19960;-81
2022/05/16 06:13:10;;;;;;;;;;;;;;;17.81;59.34;99817.75;1088619;54;19946;-82
2022/05/16 06:14:14;;;;;;;;;;;;;;;17.82;59.62;99806.78;1089589;39;20528;-81
2022/05/16 06:15:18;;;;;;;;;;;;;;;17.86;59.16;99810.72;1091112;39;20427;-83
2022/05/16 06:16:19;;;;;;;;;;;;;;;17.80;59.83;99816.94;1088668;54;19959;-82
2022/05/16 06:17:23;;;;;;;;;;;;;;;17.81;59.43;99820.47;1088591;54;19939;-81
2022/05/16 06:18:24;;;;;;;;;;;;;;;17.78;59.68;99819.84;1088662;54;19942;-81
2022/05/16 06:19:28;;;;;;;;;;;;;;;17.82;59.40;99830.25;1089626;39;20533;-82
2022/05/16 06:20:30;;;;;;;;;;;;;;;17.84;59.30;99820.94;1088540;54;19934;-81
2022/05/16 06:21:34;;;;;;;;;;;;;;;17.87;59.18;99834.03;1088564;54;19949;-83
2022/05/16 06:22:37;;;;;;;;;;;;;;;17.93;59.18;99830.56;1088577;54;19927;-82
2022/05/16 06:23:44;;;;;;;;;;;;;;;17.99;59.01;99823.56;1088623;54;19950;-82
2022/05/16 06:26:07;;;;;;;;;;;;;;;17.89;59.91;99831.97;1088459;54;19945;-81
2022/05/16 06:27:15;;;;;;;;;;;;;;;17.91;59.55;99824.50;1088528;54;19933;-83
2022/05/16 06:28:21;;;;;;;;;;;;;;;17.86;59.85;99839.66;1088686;54;19942;-81
2022/05/16 06:29:22;;;;;;;;;;;;;;;17.79;60.18;99842.31;1088707;54;19927;-82
2022/05/16 06:30:26;;;;;;;;;;;;;;;17.75;60.33;99838.34;1088614;54;19931;-81
2022/05/16 06:31:30;;;;;;;;;;;;;;;17.75;60.57;99838.34;1090253;46;19934;-82
2022/05/16 06:32:34;;;;;;;;;;;;;;;17.71;59.88;99845.16;1088668;54;19998;-82
2022/05/16 06:33:38;;;;;;;;;;;;;;;17.71;60.07;99842.44;1088611;54;19946;-81
2022/05/16 06:34:39;;;;;;;;;;;;;;;17.75;60.17;99836.47;1088667;54;19938;-81
2022/05/16 06:35:44;;;;;;;;;;;;;;;17.91;59.47;99840.72;1088654;54;20741;-81
2022/05/16 06:36:59;;;;;;;;;;;;;;;18.05;59.04;99836.28;1088774;54;19923;-82
2022/05/16 06:38:04;;;;;;;;;;;;;;;18.08;59.24;99837.75;1088676;54;19967;-84
2022/05/16 06:39:12;;;;;;;;;;;;;;;18.09;59.02;99845.63;1088689;54;19935;-84
2022/05/16 06:40:14;;;;;;;;;;;;;;;18.20;58.68;99849.69;1088593;54;19943;-81
2022/05/16 06:41:25;;;;;;;;;;;;;;;18.33;58.34;99850.75;1090408;46;19938;-84
2022/05/16 06:42:26;;;;;;;;;;;;;;;18.33;58.05;99848.06;1097659;46;19931;-83
2022/05/16 06:43:31;;;;;;;;;;;;;;;18.43;57.42;99847.69;1088833;46;19923;-82
2022/05/16 06:44:32;;;;;;;;;;;;;;;18.51;57.34;99847.53;1088747;54;19962;-82
2022/05/16 06:45:36;;;;;;;;;;;;;;;18.54;57.05;99856.06;1090555;46;19927;-82
2022/05/16 06:46:37;;;;;;;;;;;;;;;18.60;56.80;99848.19;1093753;46;19950;-81
2022/05/16 06:47:41;;;;;;;;;;;;;;;18.62;56.44;99849.66;1088568;54;20027;-81
2022/05/16 06:48:42;;;;;;;;;;;;;;;18.62;56.74;99852.38;1088706;54;19942;-81
2022/05/16 06:49:46;;;;;;;;;;;;;;;18.68;56.92;99851.53;1088896;46;19929;-81
2022/05/16 06:50:52;;;;;;;;;;;;;;;18.71;56.65;99850.28;1088465;54;19967;-83
2022/05/16 06:51:57;;;;;;;;;;;;;;;18.69;56.41;99850.50;1088269;54;19966;-81
2022/05/16 06:53:03;;;;;;;;;;;;;;;18.65;56.11;99854.69;1088422;54;19949;-82
2022/05/16 06:54:04;;;;;;;;;;;;;;;18.65;56.38;99856.53;1090158;46;20660;-82
2022/05/16 06:55:11;;;;;;;;;;;;;;;18.77;55.94;99854.91;1088379;54;19942;-83
2022/05/16 06:56:15;;;;;;;;;;;;;;;18.84;55.95;99853.06;1091328;39;20681;-79
2022/05/16 06:57:17;;;;;;;;;;;;;;;18.75;55.77;99859.69;1088699;39;20505;-80
2022/05/16 06:58:20;;;;;;;;;;;;;;;18.76;55.82;99853.25;1088320;54;19950;-81
2022/05/16 06:59:22;;;;;;;;;;;;;;;18.85;55.67;99867.41;1088859;46;19950;-81
2022/05/16 07:00:26;;;;;;;;;;;;;;;18.96;54.85;99864.16;1088372;54;19950;-82
2022/05/16 07:01:27;;;;;;;;;;;;;;;18.88;54.61;99860.78;1088382;54;19942;-82
2022/05/16 07:02:31;;;;;;;;;;;;;;;18.85;54.15;99856.59;1088402;54;19927;-79
2022/05/16 07:03:35;;;;;;;;;;;;;;;18.88;54.59;99858.91;1088576;54;19950;-80
2022/05/16 07:04:39;;;;;;;;;;;;;;;18.93;54.47;99869.16;1089453;46;19958;-80
2022/05/16 07:05:43;;;;;;;;;;;;;;;18.97;54.30;99862.28;1088598;54;20146;-79
2022/05/16 07:06:47;;;;;;;;;;;;;;;19.02;54.26;99873.34;1088572;54;19927;-81
2022/05/16 07:07:48;;;;;;;;;;;;;;;19.18;53.87;99864.00;1088336;54;19926;-80
2022/05/16 07:08:53;;;;;;;;;;;;;;;19.07;54.26;99860.03;1088449;54;19997;-80
2022/05/16 07:09:54;;;;;;;;;;;;;;;19.16;54.36;99856.09;1088637;54;19935;-80
2022/05/16 07:11:00;;;;;;;;;;;;;;;19.16;54.21;99864.22;1088584;54;20578;-80
2022/05/16 07:12:04;;;;;;;;;;;;;;;19.22;54.21;99861.72;1088664;54;19944;-80
2022/05/16 07:13:08;;;;;;;;;;;;;;;19.37;54.15;99867.75;1088505;54;19942;-81
2022/05/16 07:14:12;;;;;;;;;;;;;;;19.52;53.66;99869.47;1088610;54;19974;-80
2022/05/16 07:15:13;;;;;;;;;;;;;;;19.53;53.73;99866.53;1088611;54;20839;-79
2022/05/16 07:16:17;;;;;;;;;;;;;;;19.57;53.52;99866.94;1088451;54;19927;-79
2022/05/16 07:17:18;;;;;;;;;;;;;;;19.58;53.71;99869.47;1088543;54;20543;-80
2022/05/16 07:18:23;;;;;;;;;;;;;;;19.80;53.33;99867.38;1088611;54;19990;-80
2022/05/16 07:19:28;;;;;;;;;;;;;;;19.96;53.15;99862.56;1088551;54;19954;-81
2022/05/16 07:20:32;;;;;;;;;;;;;;;20.09;52.62;99864.41;1088513;54;19958;-81
2022/05/16 07:21:34;;;;;;;;;;;;;;;20.25;52.47;99871.28;1088682;54;19943;-81
2022/05/16 07:22:45;;;;;;;;;;;;;;;20.36;52.12;99869.78;1088618;54;19978;-80
2022/05/16 07:23:49;;;;;;;;;;;;;;;20.39;51.84;99872.94;1091620;46;19995;-80
2022/05/16 07:24:55;;;;;;;;;;;;;;;20.45;51.74;99867.66;1088338;54;19942;-79
2022/05/16 07:28:36;;;;;;;;;;;;;;;20.62;51.45;99866.13;1088453;54;19935;-81
2022/05/16 07:29:37;;;;;;;;;;;;;;;20.68;51.34;99870.72;1088393;54;19927;-81
2022/05/16 07:30:47;;;;;;;;;;;;;;;20.67;51.33;99869.06;1088458;54;19948;-80
2022/05/16 07:31:51;;;;;;;;;;;;;;;20.68;51.42;99876.16;1088433;54;20057;-80
2022/05/16 07:32:55;;;;;;;;;;;;;;;20.66;51.07;99877.41;1088334;54;19943;-82
2022/05/16 07:34:00;;;;;;;;;;;;;;;20.69;51.30;99882.41;1088339;54;19942;-81
2022/05/16 07:35:04;;;;;;;;;;;;;;;20.78;51.18;99880.31;1088314;54;19946;-81
2022/05/16 07:36:08;;;;;;;;;;;;;;;20.84;50.97;99879.44;1088320;54;19923;-82
2022/05/16 07:37:10;;;;;;;;;;;;;;;20.91;50.74;99872.09;1089758;39;20170;-82
2022/05/16 07:38:14;;;;;;;;;;;;;;;21.00;50.46;99873.50;1088244;54;19943;-80
2022/05/16 07:39:17;;;;;;;;;;;;;;;21.14;50.32;99870.72;1088173;54;19943;-80
2022/05/16 07:40:19;;;;;;;;;;;;;;;21.31;49.97;99874.56;1088015;54;19980;-80
2022/05/16 07:41:26;;;;;;;;;;;;;;;21.50;49.90;99866.50;1087720;54;19945;-80
2022/05/16 07:42:27;;;;;;;;;;;;;;;21.66;49.24;99870.56;1088046;54;19982;-82
2022/05/16 07:43:31;;;;;;;;;;;;;;;21.70;48.97;99876.41;1088116;54;19951;-81
2022/05/16 07:44:33;;;;;;;;;;;;;;;21.83;49.29;99865.38;1088178;54;19978;-80
2022/05/16 07:45:36;;;;;;;;;;;;;;;21.85;49.16;99870.63;1088182;54;19927;-80
2022/05/16 07:46:40;;;;;;;;;;;;;;;21.90;48.70;99863.47;1088089;54;19942;-81
2022/05/16 07:47:41;;;;;;;;;;;;;;;21.99;48.69;99865.88;1088112;54;19943;-81
2022/05/16 07:48:45;;;;;;;;;;;;;;;22.15;48.00;99856.31;1088147;54;19943;-80
2022/05/16 07:49:49;;;;;;;;;;;;;;;22.32;48.24;99860.09;1088156;54;19935;-80
2022/05/16 07:50:50;;;;;;;;;;;;;;;22.43;47.75;99858.53;1088162;54;19927;-80
2022/05/16 07:51:54;;;;;;;;;;;;;;;22.47;47.33;99861.63;1088173;54;20007;-80
2022/05/16 07:52:58;;;;;;;;;;;;;;;22.35;47.76;99864.25;1088190;54;20027;-81
2022/05/16 07:54:02;;;;;;;;;;;;;;;22.57;47.74;99862.75;1088186;54;19943;-80
2022/05/16 07:55:07;;;;;;;;;;;;;;;22.73;47.01;99874.09;1088131;54;19934;-82
2022/05/16 07:56:11;;;;;;;;;;;;;;;22.92;46.68;99872.13;1088839;46;19930;-81
2022/05/16 07:57:18;;;;;;;;;;;;;;;22.99;46.13;99872.06;1087859;54;19945;-79
2022/05/16 07:58:23;;;;;;;;;;;;;;;23.26;46.22;99877.13;1087650;54;19938;-81
2022/05/16 07:59:24;;;;;;;;;;;;;;;23.35;45.15;99873.00;1088210;46;19949;-80
2022/05/16 08:00:28;;;;;;;;;;;;;;;23.42;45.06;99876.50;1088005;54;19943;-81
2022/05/16 08:01:29;;;;;;;;;;;;;;;23.65;45.11;99877.59;1087893;54;19939;-81
2022/05/16 08:02:33;;;;;;;;;;;;;;;23.79;44.69;99880.91;1087935;54;19943;-80
2022/05/16 08:03:36;;;;;;;;;;;;;;;23.96;44.80;99872.88;1087941;54;19939;-80
2022/05/16 08:04:40;;;;;;;;;;;;;;;24.10;44.88;99871.56;1087978;54;19942;-80
2022/05/16 08:05:42;;;;;;;;;;;;;;;24.22;44.30;99868.00;1087941;54;19938;-79
2022/05/16 08:06:46;;;;;;;;;;;;;;;24.25;44.45;99867.53;1087964;54;19942;-80
2022/05/16 08:10:31;;;;;;;;;;;;;;;24.40;44.18;99872.50;1087997;54;20035;-83
2022/05/16 08:11:35;;;;;;;;;;;;;;;24.59;43.29;99863.06;1088014;54;20784;-81
2022/05/16 08:12:39;;;;;;;;;;;;;;;24.58;43.35;99864.13;1087749;54;19942;-79
2022/05/16 08:13:44;;;;;;;;;;;;;;;24.67;43.23;99861.81;1087453;54;19954;-82
2022/05/16 08:14:48;;;;;;;;;;;;;;;24.64;42.73;99859.59;1087525;54;19966;-84
2022/05/16 08:15:49;;;;;;;;;;;;;;;24.53;42.50;99868.66;1087942;54;19942;-84
2022/05/16 08:16:53;;;;;;;;;;;;;;;24.89;42.03;99858.47;1087265;54;19938;-83
2022/05/16 08:17:54;;;;;;;;;;;;;;;25.11;41.69;99869.53;1087976;54;19958;-80
2022/05/16 08:18:58;;;;;;;;;;;;;;;25.36;41.32;99863.69;1087728;54;19942;-81
2022/05/16 08:20:04;;;;;;;;;;;;;;;25.47;40.60;99856.50;1087746;54;19943;-80
2022/05/16 08:21:10;;;;;;;;;;;;;;;25.53;40.41;99860.13;1087140;54;19965;-79
2022/05/16 08:22:14;;;;;;;;;;;;;;;25.69;40.23;99863.97;1087737;54;20509;-82
2022/05/16 08:23:16;;;;;;;;;;;;;;;25.79;40.20;99858.66;1087525;54;19935;-83
2022/05/16 08:24:20;;;;;;;;;;;;;;;25.90;39.79;99865.09;1087797;54;19945;-82
2022/05/16 08:25:24;;;;;;;;;;;;;;;25.90;39.10;99856.88;1087689;54;19927;-82
2022/05/16 08:26:28;;;;;;;;;;;;;;;25.81;39.99;99847.44;1087727;54;20487;-83
2022/05/16 08:27:31;;;;;;;;;;;;;;;25.86;39.65;99853.00;1087333;54;20444;-82
2022/05/16 08:28:39;;;;;;;;;;;;;;;25.70;39.94;99854.69;1087556;54;19938;-83
2022/05/16 08:29:40;;;;;;;;;;;;;;;25.77;40.33;99858.06;1087660;54;20017;-82
2022/05/16 08:30:44;;;;;;;;;;;;;;;25.85;39.80;99865.03;1087290;54;19953;-83
2022/05/16 08:31:48;;;;;;;;;;;;;;;25.85;40.07;99865.03;1087324;54;19958;-84
2022/05/16 08:32:52;;;;;;;;;;;;;;;25.64;40.03;99861.97;1087229;54;19954;-82
2022/05/16 08:33:57;;;;;;;;;;;;;;;25.46;40.35;99870.44;1087372;54;19943;-82
2022/05/16 08:35:03;;;;;;;;;;;;;;;25.26;40.08;99865.41;1087070;54;19947;-81
2022/05/16 08:39:55;;;;;;;;;;;;;;;24.99;40.76;99874.22;1087600;54;20510;-82
2022/05/16 08:41:02;;;;;;;;;;;;;;;25.00;41.01;99871.25;1087617;54;19942;-82
2022/05/16 08:42:09;;;;;;;;;;;;;;;24.92;41.16;99885.31;1087891;54;19927;-82
2022/05/16 08:43:15;;;;;;;;;;;;;;;24.80;41.71;99879.06;1087781;54;20030;-82
2022/05/16 08:44:24;;;;;;;;;;;;;;;24.91;41.22;99876.25;1087989;54;19943;-83
2022/05/16 08:45:31;;;;;;;;;;;;;;;24.75;41.30;99875.13;1087962;54;19927;-83
2022/05/16 08:46:36;;;;;;;;;;;;;;;24.64;41.78;99881.47;1091792;39;20415;-83
2022/05/16 08:47:45;;;;;;;;;;;;;;;24.62;42.32;99889.06;1088068;54;19923;-83
2022/05/16 08:48:49;;;;;;;;;;;;;;;24.61;42.12;99890.94;1088370;54;19966;-83
2022/05/16 08:49:55;;;;;;;;;;;;;;;24.62;42.28;99889.06;1088270;54;19950;-82
2022/05/16 08:51:00;;;;;;;;;;;;;;;24.67;42.46;99893.81;1088231;54;20693;-82
2022/05/16 08:52:07;;;;;;;;;;;;;;;24.69;42.64;99887.03;1088203;54;19942;-84
2022/05/16 08:53:14;;;;;;;;;;;;;;;24.67;42.57;99894.63;1088257;54;20487;-83
2022/05/16 08:54:21;;;;;;;;;;;;;;;24.79;42.56;99885.59;1088189;54;19927;-82
2022/05/16 08:55:29;;;;;;;;;;;;;;;24.72;42.53;99897.50;1087823;54;20649;-84
2022/05/16 08:56:31;;;;;;;;;;;;;;;24.72;42.76;99897.50;1088169;54;19949;-82
2022/05/16 08:57:36;;;;;;;;;;;;;;;24.79;42.79;99886.44;1088181;54;20002;-84
2022/05/16 08:58:40;;;;;;;;;;;;;;;24.73;43.04;99890.13;1088257;54;20482;-83
2022/05/16 08:59:50;;;;;;;;;;;;;;;24.78;42.97;99895.69;1088347;54;19943;-81
2022/05/16 09:00:56;;;;;;;;;;;;;;;24.81;42.50;99900.66;1088331;54;19943;-83
2022/05/16 09:02:02;;;;;;;;;;;;;;;24.84;43.19;99897.44;1088256;54;19942;-83
2022/05/16 09:03:07;;;;;;;;;;;;;;;25.19;41.99;99892.91;1088176;54;19949;-81
2022/05/16 09:04:14;;;;;;;;;;;;;;;25.34;42.03;99889.63;1088343;54;19923;-82
2022/05/16 09:05:18;;;;;;;;;;;;;;;25.64;41.08;99889.34;1090807;39;20587;-83
2022/05/16 09:06:24;;;;;;;;;;;;;;;25.58;41.38;99898.56;1088327;54;19927;-81
2022/05/16 09:07:31;;;;;;;;;;;;;;;25.94;40.89;99890.91;1088343;54;19943;-83
2022/05/16 09:08:38;;;;;;;;;;;;;;;25.77;40.88;99882.69;1088207;54;20520;-82
2022/05/16 09:09:42;;;;;;;;;;;;;;;25.64;41.23;99894.81;1088257;54;19950;-82
2022/05/16 09:11:00;;;;;;;;;;;;;;;25.64;41.36;99891.25;1088148;54;19950;-83
2022/05/16 09:12:05;;;;;;;;;;;;;;;25.90;41.03;99892.47;1088133;39;20475;-81
2022/05/16 09:13:16;;;;;;;;;;;;;;;25.86;40.64;99894.06;1088115;54;19923;-81
2022/05/16 09:14:28;;;;;;;;;;;;;;;25.73;41.10;99897.97;1095274;39;20428;-81
2022/05/16 09:15:41;;;;;;;;;;;;;;;25.99;40.54;99890.16;1088170;54;19949;-83
2022/05/16 09:16:50;;;;;;;;;;;;;;;25.96;40.73;99896.13;1088072;54;20370;-81
2022/05/16 09:18:08;;;;;;;;;;;;;;;26.28;40.29;99888.13;1088247;54;19943;-83
2022/05/16 09:19:32;;;;;;;;;;;;;;;26.36;39.20;99886.88;1088197;54;19943;-81
2022/05/16 09:20:40;;;;;;;;;;;;;;;25.95;39.80;99895.31;1088212;54;19938;-83
2022/05/16 09:21:49;;;;;;;;;;;;;;;26.28;39.36;99899.06;1087818;54;19962;-82
2022/05/16 09:22:55;;;;;;;;;;;;;;;26.23;39.52;99895.44;1087739;54;19958;-82
2022/05/16 09:24:04;;;;;;;;;;;;;;;26.14;39.10;99897.78;1089586;39;20451;-84
2022/05/16 09:25:08;;;;;;;;;;;;;;;26.03;39.25;99901.44;1087279;54;19942;-81
2022/05/16 09:26:16;;;;;;;;;;;;;;;25.82;39.81;99901.09;1087547;54;19958;-82
2022/05/16 09:28:34;;;;;;;;;;;;;;;25.81;39.92;99902.19;1087654;54;19969;-84
2022/05/16 09:28:46;;;;;;;;;;;;;;;25.87;40.01;99906.69;1087644;54;19950;-82
2022/05/16 09:29:49;;;;;;;;;;;;;;;25.97;40.11;99901.38;1087758;54;19951;-83
2022/05/16 09:30:59;;;;;;;;;;;;;;;25.83;40.07;99903.63;1088563;39;20498;-83
2022/05/16 09:32:06;;;;;;;;;;;;;;;25.89;39.47;99906.41;1090537;47;19946;-82
2022/05/16 09:33:09;;;;;;;;;;;;;;;25.95;39.51;99900.78;1088077;54;19950;-80
2022/05/16 09:34:15;;;;;;;;;;;;;;;26.01;39.44;99910.72;1088209;54;19942;-81
2022/05/16 09:35:20;;;;;;;;;;;;;;;26.07;39.29;99916.28;1088107;54;20484;-80
2022/05/16 09:36:25;;;;;;;;;;;;;;;26.24;39.30;99908.06;1087762;54;19927;-81
2022/05/16 09:37:26;;;;;;;;;;;;;;;26.37;38.84;99912.34;1087705;54;20473;-81
2022/05/16 09:38:30;;;;;;;;;;;;;;;26.39;38.67;99901.97;1087880;54;20019;-82
2022/05/16 09:39:35;;;;;;;;;;;;;;;26.37;38.98;99902.22;1087872;54;20715;-81
2022/05/16 09:40:38;;;;;;;;;;;;;;;26.16;39.12;99901.13;1088088;54;19943;-82
2022/05/16 09:41:45;;;;;;;;;;;;;;;25.90;40.03;99903.41;1088220;54;19986;-81
2022/05/16 09:42:46;;;;;;;;;;;;;;;25.85;40.38;99906.09;1088100;54;19954;-82
2022/05/16 09:43:56;;;;;;;;;;;;;;;25.99;39.31;99909.31;1088152;54;19927;-81
2022/05/16 09:45:03;;;;;;;;;;;;;;;26.24;39.00;99908.06;1088445;54;20824;-82
2022/05/16 09:46:15;;;;;;;;;;;;;;;26.36;38.88;99905.19;1092062;39;20348;-81
2022/05/16 09:47:26;;;;;;;;;;;;;;;26.39;38.57;99904.69;1087896;54;19960;-81
2022/05/16 09:48:30;;;;;;;;;;;;;;;26.58;38.11;99903.31;1088291;54;19971;-81
2022/05/16 09:49:33;;;;;;;;;;;;;;;26.63;38.31;99914.34;1088166;54;19942;-81
2022/05/16 09:50:37;;;;;;;;;;;;;;;26.52;38.42;99904.34;1088529;54;19951;-83
2022/05/16 09:51:39;;;;;;;;;;;;;;;26.66;38.60;99917.66;1088365;54;20468;-81
2022/05/16 09:52:46;;;;;;;;;;;;;;;26.83;38.44;99909.41;1088460;54;19990;-81
2022/05/16 09:53:47;;;;;;;;;;;;;;;26.74;38.41;99911.72;1088380;54;20010;-84
2022/05/16 09:55:01;;;;;;;;;;;;;;;26.86;38.14;99915.19;1088459;54;19942;-83
2022/05/16 09:56:05;;;;;;;;;;;;;;;26.65;38.72;99915.97;1088463;54;19958;-82
2022/05/16 09:57:16;;;;;;;;;;;;;;;27.00;37.80;99910.13;1088375;54;19998;-81
2022/05/16 09:58:21;;;;;;;;;;;;;;;27.22;37.75;99912.00;1088510;54;19942;-82
2022/05/16 09:59:33;;;;;;;;;;;;;;;27.11;37.58;99916.56;1090667;46;19950;-84
2022/05/16 10:00:40;;;;;;;;;;;;;;;27.35;37.55;99913.50;1088721;46;19938;-81
2022/05/16 10:01:49;;;;;;;;;;;;;;;27.09;37.53;99916.81;1088691;46;19939;-81
2022/05/16 10:03:02;;;;;;;;;;;;;;;27.34;37.05;99912.69;1088612;54;19937;-82
2022/05/16 10:04:12;;;;;;;;;;;;;;;27.46;36.97;99912.56;1088178;54;19935;-81
2022/05/16 10:05:24;;;;;;;;;;;;;;;27.33;36.96;99915.69;1088481;54;19947;-82
2022/05/16 10:06:32;;;;;;;;;;;;;;;27.22;37.25;99912.81;1088578;46;20336;-82
2022/05/16 10:07:41;;;;;;;;;;;;;;;27.19;37.36;99918.84;1088507;54;19953;-81
2022/05/16 10:08:48;;;;;;;;;;;;;;;27.13;37.57;99919.88;1088298;54;19965;-80
2022/05/16 10:09:51;;;;;;;;;;;;;;;27.01;37.96;99930.19;1088179;54;19957;-82
2022/05/16 10:10:55;;;;;;;;;;;;;;;27.00;37.88;99931.25;1088060;54;19947;-80
2022/05/16 10:11:57;;;;;;;;;;;;;;;27.28;37.55;99930.16;1088273;54;19962;-79
2022/05/16 10:13:01;;;;;;;;;;;;;;;26.91;38.41;99934.47;1088124;54;19950;-82
2022/05/16 10:14:05;;;;;;;;;;;;;;;27.00;38.23;99934.00;1088304;54;19942;-82
2022/05/16 10:15:08;;;;;;;;;;;;;;;26.72;38.67;99936.66;1088740;39;20535;-83
2022/05/16 10:16:12;;;;;;;;;;;;;;;26.56;38.85;99943.03;1088436;54;20468;-81
2022/05/16 10:17:25;;;;;;;;;;;;;;;26.80;38.52;99926.34;1090322;39;20541;-81
2022/05/16 10:18:31;;;;;;;;;;;;;;;26.59;39.14;99931.56;1089212;46;19993;-81
2022/05/16 10:19:32;;;;;;;;;;;;;;;26.57;39.01;99929.06;1089624;39;20638;-81
2022/05/16 10:20:39;;;;;;;;;;;;;;;26.47;39.13;99929.75;1087879;54;19943;-80
2022/05/16 10:21:51;;;;;;;;;;;;;;;26.81;38.82;99933.50;1088341;54;19935;-83
2022/05/16 10:22:56;;;;;;;;;;;;;;;26.62;38.73;99931.88;1088176;54;19943;-81
2022/05/16 10:24:01;;;;;;;;;;;;;;;26.44;39.06;99934.94;1088330;54;19943;-81
2022/05/16 10:25:06;;;;;;;;;;;;;;;26.25;39.50;99937.97;1088257;54;20433;-81
2022/05/16 10:26:10;;;;;;;;;;;;;;;26.26;39.50;99938.78;1092446;39;20435;-81
2022/05/16 10:27:15;;;;;;;;;;;;;;;26.58;38.92;99938.94;1088431;54;19947;-82
2022/05/16 10:28:24;;;;;;;;;;;;;;;26.78;39.00;99932.09;1088781;39;20476;-83
2022/05/16 10:29:30;;;;;;;;;;;;;;;26.72;39.00;99935.84;1088488;54;19942;-81
2022/05/16 10:33:24;;;;;;;;;;;;;;;27.01;38.39;99932.91;1088460;54;19938;-81
2022/05/16 10:33:28;;;;;;;;;;;;;;;26.96;39.21;99938.31;1088255;54;19943;-83
2022/05/16 10:34:36;;;;;;;;;;;;;;;27.15;39.14;99934.16;1087992;54;20531;-83
2022/05/16 10:35:40;;;;;;;;;;;;;;;26.99;39.29;99946.06;1088033;54;20773;-81
2022/05/16 10:36:45;;;;;;;;;;;;;;;26.55;40.20;99939.44;1089224;46;19970;-83
2022/05/16 10:37:48;;;;;;;;;;;;;;;26.30;40.76;99948.16;1088148;54;19949;-80
2022/05/16 10:38:56;;;;;;;;;;;;;;;26.22;41.05;99943.09;1095535;39;20394;-81
2022/05/16 10:40:04;;;;;;;;;;;;;;;25.94;41.14;99951.13;1088416;54;19939;-82
2022/05/16 10:41:12;;;;;;;;;;;;;;;25.86;41.22;99946.09;1088432;54;19953;-82
2022/05/16 10:42:19;;;;;;;;;;;;;;;25.70;42.01;99948.53;1088253;54;19939;-81
2022/05/16 10:43:25;;;;;;;;;;;;;;;25.77;41.79;99950.31;1091001;46;19958;-84
2022/05/16 10:44:31;;;;;;;;;;;;;;;25.77;42.07;99948.38;1088395;54;19994;-80
2022/05/16 10:45:33;;;;;;;;;;;;;;;25.68;42.54;99948.00;1088450;54;19939;-83
2022/05/16 10:46:38;;;;;;;;;;;;;;;25.94;41.87;99951.13;1088418;54;19958;-81
2022/05/16 10:47:48;;;;;;;;;;;;;;;25.96;41.79;99949.00;1088505;54;19945;-86
2022/05/16 10:48:54;;;;;;;;;;;;;;;25.90;42.06;99947.22;1088519;54;20476;-83
2022/05/16 10:50:00;;;;;;;;;;;;;;;25.71;42.47;99943.91;1088307;54;19923;-80
2022/05/16 10:51:09;;;;;;;;;;;;;;;25.51;42.93;99947.13;1091359;47;19939;-83
2022/05/16 10:52:24;;;;;;;;;;;;;;;25.58;43.17;99946.97;1088463;54;19965;-82
2022/05/16 10:53:30;;;;;;;;;;;;;;;25.74;42.67;99956.28;1087857;54;19930;-80
2022/05/16 10:54:31;;;;;;;;;;;;;;;25.63;43.15;99953.34;1087860;54;19922;-82
2022/05/16 10:55:53;;;;;;;;;;;;;;;25.69;43.13;99946.06;1088306;54;19982;-82
2022/05/16 10:57:21;;;;;;;;;;;;;;;25.51;43.51;99952.59;1088263;54;20014;-83
2022/05/16 10:58:27;;;;;;;;;;;;;;;25.58;43.55;99955.16;1088052;54;19984;-80
2022/05/16 10:59:37;;;;;;;;;;;;;;;25.61;43.40;99957.44;1088181;54;19947;-80
2022/05/16 11:00:47;;;;;;;;;;;;;;;25.66;43.20;99955.63;1088414;54;19954;-84